Cordesville, South Carolina
Current Conditions -  °F | °C
As of 4:35 PM on Sunday 23 Nov 2014 (Local Time) from KMKS Reporting Station
Moderate Rain Moderate Rain  
Wind Chill: 68°   Ceiling: 700
Heat Index: 68°   Visibility: 4mi
Dew Point: 68°   Wind: 9mph
Humidity: 100%   Direction: 130°SE
Pressure: 29.9"   Gusts: NA
Location:  33.13°N, 79.88°W
Report Text: KMKS 232135Z AUTO 13008KT 4SM RA OVC007 20/20 A2990 RMK AO2 P0004
Loading
Personal Weather Stations






























Interactive Weather Map New forecast layout! Learn more

10-Day Weather Forecast

Advertisements
Track Severe Weather on mobile